<?xml version="1.0" encoding="UTF-8" standalone="no" ?>
<gpx xmlns="http://www.topografix.com/GPX/1/1" xmlns:xsi="http://www.w3.org/2001/XMLSchema-instance" xsi:schemaLocation="http://www.topografix.com/GPX/1/1 http://www.topografix.com/GPX/1/1/gpx.xsd" version="1.1" creator="VisuGPX - https://www.visugpx.com">
  <metadata>
    <name>Cirque du Bout du Monde</name>
    <desc><![CDATA[#fait]]></desc>
  </metadata>
  <wpt lat="43.77852" lon="3.38036">
    <ele>280</ele>
    <name><![CDATA[Parking Randonneurs]]></name>
  </wpt>
  <wpt lat="43.77816" lon="3.38032">
    <ele>281</ele>
    <name><![CDATA[Lou Camin Farrat]]></name>
  </wpt>
  <wpt lat="43.77785" lon="3.37188">
    <ele>358</ele>
    <name><![CDATA[Fourche, à droite]]></name>
  </wpt>
  <wpt lat="43.77558" lon="3.36819">
    <ele>458</ele>
    <name><![CDATA[GRP, à droite]]></name>
  </wpt>
  <wpt lat="43.77746" lon="3.36887">
    <ele>478</ele>
    <name><![CDATA[Quitter le GRP, à droite]]></name>
  </wpt>
  <wpt lat="43.7832" lon="3.37356">
    <ele>460</ele>
    <name><![CDATA[À droite au ruisseau la Brèze]]></name>
  </wpt>
  <wpt lat="43.78369" lon="3.39394">
    <ele>484</ele>
    <name><![CDATA[Traversée du Rieussec]]></name>
  </wpt>
  <wpt lat="43.77782" lon="3.3882">
    <ele>425</ele>
    <name><![CDATA[Pioch Blanc, croisement, à droite]]></name>
  </wpt>
  <wpt lat="43.77948" lon="3.38557">
    <ele>344</ele>
    <name><![CDATA[À gauche à la fourche]]></name>
  </wpt>
  <wpt lat="43.77942" lon="3.38372">
    <ele>314</ele>
    <name><![CDATA[Quitter la route, prendre à gauche]]></name>
  </wpt>
  <wpt lat="43.77853" lon="3.38035">
    <ele>280</ele>
    <name><![CDATA[Parking Randonneurs]]></name>
  </wpt>
  <trk>
    <name><![CDATA[Cirque du Bout du Monde]]></name>
    <trkseg>
      <trkpt lat="43.77852" lon="3.38036">
        <ele>280</ele>
        <time>2021-06-13T08:52:40+02:00</time>
      </trkpt>
      <trkpt lat="43.77816" lon="3.38032">
        <ele>281</ele>
        <time>2021-06-13T08:52:45+02:00</time>
      </trkpt>
      <trkpt lat="43.77802" lon="3.38028">
        <ele>282</ele>
        <time>2021-06-13T08:52:50+02:00</time>
      </trkpt>
      <trkpt lat="43.77788" lon="3.37982">
        <ele>280</ele>
        <time>2021-06-13T08:52:55+02:00</time>
      </trkpt>
      <trkpt lat="43.77795" lon="3.37967">
        <ele>280</ele>
        <time>2021-06-13T08:53:00+02:00</time>
      </trkpt>
      <trkpt lat="43.77819" lon="3.37903">
        <ele>278</ele>
        <time>2021-06-13T08:53:05+02:00</time>
      </trkpt>
      <trkpt lat="43.77839" lon="3.3785">
        <ele>281</ele>
        <time>2021-06-13T08:53:10+02:00</time>
      </trkpt>
      <trkpt lat="43.77817" lon="3.37823">
        <ele>281</ele>
        <time>2021-06-13T08:53:15+02:00</time>
      </trkpt>
      <trkpt lat="43.77795" lon="3.37762">
        <ele>283</ele>
        <time>2021-06-13T08:53:20+02:00</time>
      </trkpt>
      <trkpt lat="43.77773" lon="3.37701">
        <ele>281</ele>
        <time>2021-06-13T08:53:25+02:00</time>
      </trkpt>
      <trkpt lat="43.7778" lon="3.37703">
        <ele>282</ele>
        <time>2021-06-13T08:53:30+02:00</time>
      </trkpt>
      <trkpt lat="43.77794" lon="3.37726">
        <ele>284</ele>
        <time>2021-06-13T08:53:35+02:00</time>
      </trkpt>
      <trkpt lat="43.77805" lon="3.3773">
        <ele>285</ele>
        <time>2021-06-13T08:53:40+02:00</time>
      </trkpt>
      <trkpt lat="43.77826" lon="3.37704">
        <ele>289</ele>
        <time>2021-06-13T08:53:45+02:00</time>
      </trkpt>
      <trkpt lat="43.7785" lon="3.37688">
        <ele>295</ele>
        <time>2021-06-13T08:53:50+02:00</time>
      </trkpt>
      <trkpt lat="43.77866" lon="3.37672">
        <ele>301</ele>
        <time>2021-06-13T08:53:55+02:00</time>
      </trkpt>
      <trkpt lat="43.77883" lon="3.37658">
        <ele>307</ele>
        <time>2021-06-13T08:54:00+02:00</time>
      </trkpt>
      <trkpt lat="43.779" lon="3.3764">
        <ele>313</ele>
        <time>2021-06-13T08:54:05+02:00</time>
      </trkpt>
      <trkpt lat="43.77911" lon="3.37611">
        <ele>320</ele>
        <time>2021-06-13T08:54:10+02:00</time>
      </trkpt>
      <trkpt lat="43.77905" lon="3.37583">
        <ele>322</ele>
        <time>2021-06-13T08:54:15+02:00</time>
      </trkpt>
      <trkpt lat="43.77902" lon="3.3756">
        <ele>325</ele>
        <time>2021-06-13T08:54:20+02:00</time>
      </trkpt>
      <trkpt lat="43.77902" lon="3.37535">
        <ele>329</ele>
        <time>2021-06-13T08:54:25+02:00</time>
      </trkpt>
      <trkpt lat="43.77898" lon="3.37505">
        <ele>334</ele>
        <time>2021-06-13T08:54:30+02:00</time>
      </trkpt>
      <trkpt lat="43.77894" lon="3.37483">
        <ele>336</ele>
        <time>2021-06-13T08:54:35+02:00</time>
      </trkpt>
      <trkpt lat="43.77884" lon="3.37456">
        <ele>338</ele>
        <time>2021-06-13T08:54:40+02:00</time>
      </trkpt>
      <trkpt lat="43.77889" lon="3.37439">
        <ele>341</ele>
        <time>2021-06-13T08:54:45+02:00</time>
      </trkpt>
      <trkpt lat="43.77894" lon="3.3741">
        <ele>345</ele>
        <time>2021-06-13T08:54:50+02:00</time>
      </trkpt>
      <trkpt lat="43.77879" lon="3.3739">
        <ele>345</ele>
        <time>2021-06-13T08:54:55+02:00</time>
      </trkpt>
      <trkpt lat="43.77864" lon="3.37371">
        <ele>346</ele>
        <time>2021-06-13T08:55:00+02:00</time>
      </trkpt>
      <trkpt lat="43.77865" lon="3.37358">
        <ele>347</ele>
        <time>2021-06-13T08:55:05+02:00</time>
      </trkpt>
      <trkpt lat="43.77858" lon="3.37339">
        <ele>349</ele>
        <time>2021-06-13T08:55:10+02:00</time>
      </trkpt>
      <trkpt lat="43.77856" lon="3.37327">
        <ele>350</ele>
        <time>2021-06-13T08:55:15+02:00</time>
      </trkpt>
      <trkpt lat="43.77843" lon="3.37302">
        <ele>352</ele>
        <time>2021-06-13T08:55:20+02:00</time>
      </trkpt>
      <trkpt lat="43.77832" lon="3.37279">
        <ele>352</ele>
        <time>2021-06-13T08:55:25+02:00</time>
      </trkpt>
      <trkpt lat="43.77822" lon="3.37259">
        <ele>352</ele>
        <time>2021-06-13T08:55:30+02:00</time>
      </trkpt>
      <trkpt lat="43.7781" lon="3.37234">
        <ele>353</ele>
        <time>2021-06-13T08:55:35+02:00</time>
      </trkpt>
      <trkpt lat="43.77798" lon="3.37209">
        <ele>355</ele>
        <time>2021-06-13T08:55:40+02:00</time>
      </trkpt>
      <trkpt lat="43.77785" lon="3.37188">
        <ele>358</ele>
        <time>2021-06-13T08:55:45+02:00</time>
      </trkpt>
      <trkpt lat="43.77793" lon="3.37155">
        <ele>364</ele>
        <time>2021-06-13T08:55:50+02:00</time>
      </trkpt>
      <trkpt lat="43.77788" lon="3.37127">
        <ele>372</ele>
        <time>2021-06-13T08:55:55+02:00</time>
      </trkpt>
      <trkpt lat="43.77791" lon="3.37109">
        <ele>377</ele>
        <time>2021-06-13T08:56:00+02:00</time>
      </trkpt>
      <trkpt lat="43.77789" lon="3.37084">
        <ele>384</ele>
        <time>2021-06-13T08:56:05+02:00</time>
      </trkpt>
      <trkpt lat="43.77771" lon="3.37075">
        <ele>389</ele>
        <time>2021-06-13T08:56:10+02:00</time>
      </trkpt>
      <trkpt lat="43.77759" lon="3.37071">
        <ele>391</ele>
        <time>2021-06-13T08:56:15+02:00</time>
      </trkpt>
      <trkpt lat="43.77748" lon="3.37064">
        <ele>394</ele>
        <time>2021-06-13T08:56:20+02:00</time>
      </trkpt>
      <trkpt lat="43.77751" lon="3.3704">
        <ele>404</ele>
        <time>2021-06-13T08:56:25+02:00</time>
      </trkpt>
      <trkpt lat="43.7774" lon="3.37028">
        <ele>408</ele>
        <time>2021-06-13T08:56:30+02:00</time>
      </trkpt>
      <trkpt lat="43.77745" lon="3.37009">
        <ele>417</ele>
        <time>2021-06-13T08:56:35+02:00</time>
      </trkpt>
      <trkpt lat="43.77723" lon="3.36985">
        <ele>424</ele>
        <time>2021-06-13T08:56:40+02:00</time>
      </trkpt>
      <trkpt lat="43.77708" lon="3.36968">
        <ele>429</ele>
        <time>2021-06-13T08:56:45+02:00</time>
      </trkpt>
      <trkpt lat="43.77674" lon="3.36936">
        <ele>434</ele>
        <time>2021-06-13T08:56:50+02:00</time>
      </trkpt>
      <trkpt lat="43.77657" lon="3.36912">
        <ele>439</ele>
        <time>2021-06-13T08:56:55+02:00</time>
      </trkpt>
      <trkpt lat="43.77638" lon="3.36889">
        <ele>446</ele>
        <time>2021-06-13T08:57:00+02:00</time>
      </trkpt>
      <trkpt lat="43.77618" lon="3.36869">
        <ele>451</ele>
        <time>2021-06-13T08:57:05+02:00</time>
      </trkpt>
      <trkpt lat="43.77618" lon="3.36869">
        <ele>451</ele>
        <time>2021-06-13T08:57:10+02:00</time>
      </trkpt>
      <trkpt lat="43.77597" lon="3.3685">
        <ele>453</ele>
        <time>2021-06-13T08:57:15+02:00</time>
      </trkpt>
      <trkpt lat="43.77581" lon="3.36836">
        <ele>455</ele>
        <time>2021-06-13T08:57:20+02:00</time>
      </trkpt>
      <trkpt lat="43.77558" lon="3.36819">
        <ele>458</ele>
        <time>2021-06-13T08:57:25+02:00</time>
      </trkpt>
      <trkpt lat="43.77604" lon="3.36825">
        <ele>466</ele>
        <time>2021-06-13T08:57:30+02:00</time>
      </trkpt>
      <trkpt lat="43.7766" lon="3.36847">
        <ele>471</ele>
        <time>2021-06-13T08:57:35+02:00</time>
      </trkpt>
      <trkpt lat="43.7769" lon="3.36854">
        <ele>476</ele>
        <time>2021-06-13T08:57:40+02:00</time>
      </trkpt>
      <trkpt lat="43.77746" lon="3.36887">
        <ele>478</ele>
        <time>2021-06-13T08:57:45+02:00</time>
      </trkpt>
      <trkpt lat="43.77778" lon="3.36927">
        <ele>469</ele>
        <time>2021-06-13T08:57:50+02:00</time>
      </trkpt>
      <trkpt lat="43.77797" lon="3.36937">
        <ele>470</ele>
        <time>2021-06-13T08:57:55+02:00</time>
      </trkpt>
      <trkpt lat="43.77838" lon="3.36948">
        <ele>477</ele>
        <time>2021-06-13T08:58:00+02:00</time>
      </trkpt>
      <trkpt lat="43.77851" lon="3.36964">
        <ele>472</ele>
        <time>2021-06-13T08:58:05+02:00</time>
      </trkpt>
      <trkpt lat="43.77866" lon="3.36977">
        <ele>470</ele>
        <time>2021-06-13T08:58:10+02:00</time>
      </trkpt>
      <trkpt lat="43.77892" lon="3.3698">
        <ele>478</ele>
        <time>2021-06-13T08:58:15+02:00</time>
      </trkpt>
      <trkpt lat="43.77904" lon="3.37">
        <ele>474</ele>
        <time>2021-06-13T08:58:20+02:00</time>
      </trkpt>
      <trkpt lat="43.77922" lon="3.37011">
        <ele>474</ele>
        <time>2021-06-13T08:58:25+02:00</time>
      </trkpt>
      <trkpt lat="43.77939" lon="3.37023">
        <ele>473</ele>
        <time>2021-06-13T08:58:30+02:00</time>
      </trkpt>
      <trkpt lat="43.77958" lon="3.37036">
        <ele>474</ele>
        <time>2021-06-13T08:58:35+02:00</time>
      </trkpt>
      <trkpt lat="43.77964" lon="3.37038">
        <ele>477</ele>
        <time>2021-06-13T08:58:40+02:00</time>
      </trkpt>
      <trkpt lat="43.77985" lon="3.37073">
        <ele>469</ele>
        <time>2021-06-13T08:58:45+02:00</time>
      </trkpt>
      <trkpt lat="43.78027" lon="3.37124">
        <ele>458</ele>
        <time>2021-06-13T08:58:50+02:00</time>
      </trkpt>
      <trkpt lat="43.78081" lon="3.37175">
        <ele>459</ele>
        <time>2021-06-13T08:58:55+02:00</time>
      </trkpt>
      <trkpt lat="43.78129" lon="3.37223">
        <ele>456</ele>
        <time>2021-06-13T08:59:00+02:00</time>
      </trkpt>
      <trkpt lat="43.78151" lon="3.37242">
        <ele>456</ele>
        <time>2021-06-13T08:59:05+02:00</time>
      </trkpt>
      <trkpt lat="43.78189" lon="3.37278">
        <ele>451</ele>
        <time>2021-06-13T08:59:10+02:00</time>
      </trkpt>
      <trkpt lat="43.78226" lon="3.37305">
        <ele>448</ele>
        <time>2021-06-13T08:59:15+02:00</time>
      </trkpt>
      <trkpt lat="43.78241" lon="3.37308">
        <ele>452</ele>
        <time>2021-06-13T08:59:20+02:00</time>
      </trkpt>
      <trkpt lat="43.78257" lon="3.37341">
        <ele>444</ele>
        <time>2021-06-13T08:59:25+02:00</time>
      </trkpt>
      <trkpt lat="43.7832" lon="3.37356">
        <ele>460</ele>
        <time>2021-06-13T08:59:30+02:00</time>
      </trkpt>
      <trkpt lat="43.78284" lon="3.37365">
        <ele>445</ele>
        <time>2021-06-13T08:59:35+02:00</time>
      </trkpt>
      <trkpt lat="43.78269" lon="3.37369">
        <ele>438</ele>
        <time>2021-06-13T08:59:40+02:00</time>
      </trkpt>
      <trkpt lat="43.78245" lon="3.37362">
        <ele>432</ele>
        <time>2021-06-13T08:59:45+02:00</time>
      </trkpt>
      <trkpt lat="43.7823" lon="3.37337">
        <ele>437</ele>
        <time>2021-06-13T08:59:50+02:00</time>
      </trkpt>
      <trkpt lat="43.78171" lon="3.37328">
        <ele>422</ele>
        <time>2021-06-13T08:59:55+02:00</time>
      </trkpt>
      <trkpt lat="43.78183" lon="3.37346">
        <ele>418</ele>
        <time>2021-06-13T09:00:00+02:00</time>
      </trkpt>
      <trkpt lat="43.78215" lon="3.37374">
        <ele>417</ele>
        <time>2021-06-13T09:00:05+02:00</time>
      </trkpt>
      <trkpt lat="43.78231" lon="3.37365">
        <ele>426</ele>
        <time>2021-06-13T09:00:10+02:00</time>
      </trkpt>
      <trkpt lat="43.78234" lon="3.37392">
        <ele>417</ele>
        <time>2021-06-13T09:00:15+02:00</time>
      </trkpt>
      <trkpt lat="43.78243" lon="3.37402">
        <ele>416</ele>
        <time>2021-06-13T09:00:20+02:00</time>
      </trkpt>
      <trkpt lat="43.78276" lon="3.37413">
        <ele>425</ele>
        <time>2021-06-13T09:00:25+02:00</time>
      </trkpt>
      <trkpt lat="43.7828" lon="3.37432">
        <ele>419</ele>
        <time>2021-06-13T09:00:30+02:00</time>
      </trkpt>
      <trkpt lat="43.78298" lon="3.37453">
        <ele>419</ele>
        <time>2021-06-13T09:00:35+02:00</time>
      </trkpt>
      <trkpt lat="43.78298" lon="3.37453">
        <ele>419</ele>
        <time>2021-06-13T09:00:40+02:00</time>
      </trkpt>
      <trkpt lat="43.78321" lon="3.37478">
        <ele>421</ele>
        <time>2021-06-13T09:00:45+02:00</time>
      </trkpt>
      <trkpt lat="43.78347" lon="3.37548">
        <ele>414</ele>
        <time>2021-06-13T09:00:50+02:00</time>
      </trkpt>
      <trkpt lat="43.78323" lon="3.37557">
        <ele>401</ele>
        <time>2021-06-13T09:00:55+02:00</time>
      </trkpt>
      <trkpt lat="43.7831" lon="3.37578">
        <ele>389</ele>
        <time>2021-06-13T09:01:00+02:00</time>
      </trkpt>
      <trkpt lat="43.78324" lon="3.37598">
        <ele>388</ele>
        <time>2021-06-13T09:01:05+02:00</time>
      </trkpt>
      <trkpt lat="43.78359" lon="3.37616">
        <ele>394</ele>
        <time>2021-06-13T09:01:10+02:00</time>
      </trkpt>
      <trkpt lat="43.78359" lon="3.37616">
        <ele>394</ele>
        <time>2021-06-13T09:01:15+02:00</time>
      </trkpt>
      <trkpt lat="43.78386" lon="3.37616">
        <ele>407</ele>
        <time>2021-06-13T09:01:20+02:00</time>
      </trkpt>
      <trkpt lat="43.78402" lon="3.37638">
        <ele>404</ele>
        <time>2021-06-13T09:01:25+02:00</time>
      </trkpt>
      <trkpt lat="43.78421" lon="3.3766">
        <ele>403</ele>
        <time>2021-06-13T09:01:30+02:00</time>
      </trkpt>
      <trkpt lat="43.7842" lon="3.37681">
        <ele>393</ele>
        <time>2021-06-13T09:01:35+02:00</time>
      </trkpt>
      <trkpt lat="43.78446" lon="3.37701">
        <ele>396</ele>
        <time>2021-06-13T09:01:40+02:00</time>
      </trkpt>
      <trkpt lat="43.78443" lon="3.37732">
        <ele>379</ele>
        <time>2021-06-13T09:01:45+02:00</time>
      </trkpt>
      <trkpt lat="43.78472" lon="3.37736">
        <ele>392</ele>
        <time>2021-06-13T09:01:50+02:00</time>
      </trkpt>
      <trkpt lat="43.78539" lon="3.3783">
        <ele>379</ele>
        <time>2021-06-13T09:01:55+02:00</time>
      </trkpt>
      <trkpt lat="43.7856" lon="3.37862">
        <ele>389</ele>
        <time>2021-06-13T09:02:00+02:00</time>
      </trkpt>
      <trkpt lat="43.78569" lon="3.3788">
        <ele>394</ele>
        <time>2021-06-13T09:02:05+02:00</time>
      </trkpt>
      <trkpt lat="43.78566" lon="3.37898">
        <ele>394</ele>
        <time>2021-06-13T09:02:10+02:00</time>
      </trkpt>
      <trkpt lat="43.78533" lon="3.37912">
        <ele>383</ele>
        <time>2021-06-13T09:02:15+02:00</time>
      </trkpt>
      <trkpt lat="43.78513" lon="3.37932">
        <ele>381</ele>
        <time>2021-06-13T09:02:20+02:00</time>
      </trkpt>
      <trkpt lat="43.78479" lon="3.37921">
        <ele>365</ele>
        <time>2021-06-13T09:02:25+02:00</time>
      </trkpt>
      <trkpt lat="43.78452" lon="3.37912">
        <ele>354</ele>
        <time>2021-06-13T09:02:30+02:00</time>
      </trkpt>
      <trkpt lat="43.78444" lon="3.3794">
        <ele>358</ele>
        <time>2021-06-13T09:02:35+02:00</time>
      </trkpt>
      <trkpt lat="43.78435" lon="3.37962">
        <ele>359</ele>
        <time>2021-06-13T09:02:40+02:00</time>
      </trkpt>
      <trkpt lat="43.78435" lon="3.37997">
        <ele>366</ele>
        <time>2021-06-13T09:02:45+02:00</time>
      </trkpt>
      <trkpt lat="43.7844" lon="3.38031">
        <ele>374</ele>
        <time>2021-06-13T09:02:50+02:00</time>
      </trkpt>
      <trkpt lat="43.78446" lon="3.38065">
        <ele>384</ele>
        <time>2021-06-13T09:02:55+02:00</time>
      </trkpt>
      <trkpt lat="43.78437" lon="3.38094">
        <ele>384</ele>
        <time>2021-06-13T09:03:00+02:00</time>
      </trkpt>
      <trkpt lat="43.78419" lon="3.38117">
        <ele>377</ele>
        <time>2021-06-13T09:03:05+02:00</time>
      </trkpt>
      <trkpt lat="43.78421" lon="3.38131">
        <ele>384</ele>
        <time>2021-06-13T09:03:10+02:00</time>
      </trkpt>
      <trkpt lat="43.78407" lon="3.38154">
        <ele>381</ele>
        <time>2021-06-13T09:03:15+02:00</time>
      </trkpt>
      <trkpt lat="43.78404" lon="3.38177">
        <ele>382</ele>
        <time>2021-06-13T09:03:20+02:00</time>
      </trkpt>
      <trkpt lat="43.78405" lon="3.382">
        <ele>381</ele>
        <time>2021-06-13T09:03:25+02:00</time>
      </trkpt>
      <trkpt lat="43.78408" lon="3.38232">
        <ele>382</ele>
        <time>2021-06-13T09:03:30+02:00</time>
      </trkpt>
      <trkpt lat="43.78425" lon="3.3825">
        <ele>391</ele>
        <time>2021-06-13T09:03:35+02:00</time>
      </trkpt>
      <trkpt lat="43.78441" lon="3.38271">
        <ele>400</ele>
        <time>2021-06-13T09:03:40+02:00</time>
      </trkpt>
      <trkpt lat="43.78455" lon="3.38289">
        <ele>406</ele>
        <time>2021-06-13T09:03:45+02:00</time>
      </trkpt>
      <trkpt lat="43.78436" lon="3.38312">
        <ele>395</ele>
        <time>2021-06-13T09:03:50+02:00</time>
      </trkpt>
      <trkpt lat="43.78454" lon="3.38317">
        <ele>403</ele>
        <time>2021-06-13T09:03:55+02:00</time>
      </trkpt>
      <trkpt lat="43.7845" lon="3.38337">
        <ele>402</ele>
        <time>2021-06-13T09:04:00+02:00</time>
      </trkpt>
      <trkpt lat="43.7845" lon="3.38357">
        <ele>409</ele>
        <time>2021-06-13T09:04:05+02:00</time>
      </trkpt>
      <trkpt lat="43.78443" lon="3.38375">
        <ele>412</ele>
        <time>2021-06-13T09:04:10+02:00</time>
      </trkpt>
      <trkpt lat="43.78421" lon="3.38409">
        <ele>412</ele>
        <time>2021-06-13T09:04:15+02:00</time>
      </trkpt>
      <trkpt lat="43.78419" lon="3.38425">
        <ele>417</ele>
        <time>2021-06-13T09:04:20+02:00</time>
      </trkpt>
      <trkpt lat="43.78446" lon="3.3841">
        <ele>426</ele>
        <time>2021-06-13T09:04:25+02:00</time>
      </trkpt>
      <trkpt lat="43.78439" lon="3.38429">
        <ele>430</ele>
        <time>2021-06-13T09:04:30+02:00</time>
      </trkpt>
      <trkpt lat="43.78429" lon="3.38457">
        <ele>436</ele>
        <time>2021-06-13T09:04:35+02:00</time>
      </trkpt>
      <trkpt lat="43.78429" lon="3.38457">
        <ele>436</ele>
        <time>2021-06-13T09:04:40+02:00</time>
      </trkpt>
      <trkpt lat="43.78412" lon="3.3849">
        <ele>439</ele>
        <time>2021-06-13T09:04:45+02:00</time>
      </trkpt>
      <trkpt lat="43.78389" lon="3.38531">
        <ele>438</ele>
        <time>2021-06-13T09:04:50+02:00</time>
      </trkpt>
      <trkpt lat="43.78371" lon="3.38555">
        <ele>431</ele>
        <time>2021-06-13T09:04:55+02:00</time>
      </trkpt>
      <trkpt lat="43.78369" lon="3.38581">
        <ele>437</ele>
        <time>2021-06-13T09:05:00+02:00</time>
      </trkpt>
      <trkpt lat="43.78366" lon="3.38599">
        <ele>436</ele>
        <time>2021-06-13T09:05:05+02:00</time>
      </trkpt>
      <trkpt lat="43.78371" lon="3.38621">
        <ele>442</ele>
        <time>2021-06-13T09:05:10+02:00</time>
      </trkpt>
      <trkpt lat="43.7836" lon="3.38645">
        <ele>435</ele>
        <time>2021-06-13T09:05:15+02:00</time>
      </trkpt>
      <trkpt lat="43.78349" lon="3.38663">
        <ele>427</ele>
        <time>2021-06-13T09:05:20+02:00</time>
      </trkpt>
      <trkpt lat="43.78364" lon="3.38697">
        <ele>435</ele>
        <time>2021-06-13T09:05:25+02:00</time>
      </trkpt>
      <trkpt lat="43.78379" lon="3.38722">
        <ele>440</ele>
        <time>2021-06-13T09:05:30+02:00</time>
      </trkpt>
      <trkpt lat="43.78414" lon="3.38756">
        <ele>448</ele>
        <time>2021-06-13T09:05:35+02:00</time>
      </trkpt>
      <trkpt lat="43.78433" lon="3.38766">
        <ele>448</ele>
        <time>2021-06-13T09:05:40+02:00</time>
      </trkpt>
      <trkpt lat="43.78486" lon="3.38771">
        <ele>461</ele>
        <time>2021-06-13T09:05:45+02:00</time>
      </trkpt>
      <trkpt lat="43.78515" lon="3.38774">
        <ele>469</ele>
        <time>2021-06-13T09:05:50+02:00</time>
      </trkpt>
      <trkpt lat="43.78519" lon="3.38802">
        <ele>460</ele>
        <time>2021-06-13T09:05:55+02:00</time>
      </trkpt>
      <trkpt lat="43.78531" lon="3.38832">
        <ele>454</ele>
        <time>2021-06-13T09:06:00+02:00</time>
      </trkpt>
      <trkpt lat="43.78518" lon="3.38867">
        <ele>448</ele>
        <time>2021-06-13T09:06:05+02:00</time>
      </trkpt>
      <trkpt lat="43.78509" lon="3.38898">
        <ele>443</ele>
        <time>2021-06-13T09:06:10+02:00</time>
      </trkpt>
      <trkpt lat="43.78509" lon="3.38898">
        <ele>443</ele>
        <time>2021-06-13T09:06:15+02:00</time>
      </trkpt>
      <trkpt lat="43.78488" lon="3.38947">
        <ele>433</ele>
        <time>2021-06-13T09:06:20+02:00</time>
      </trkpt>
      <trkpt lat="43.78488" lon="3.38977">
        <ele>435</ele>
        <time>2021-06-13T09:06:25+02:00</time>
      </trkpt>
      <trkpt lat="43.7849" lon="3.39021">
        <ele>442</ele>
        <time>2021-06-13T09:06:30+02:00</time>
      </trkpt>
      <trkpt lat="43.78472" lon="3.3908">
        <ele>439</ele>
        <time>2021-06-13T09:06:35+02:00</time>
      </trkpt>
      <trkpt lat="43.78448" lon="3.39143">
        <ele>444</ele>
        <time>2021-06-13T09:06:40+02:00</time>
      </trkpt>
      <trkpt lat="43.78435" lon="3.39178">
        <ele>446</ele>
        <time>2021-06-13T09:06:45+02:00</time>
      </trkpt>
      <trkpt lat="43.78444" lon="3.392">
        <ele>454</ele>
        <time>2021-06-13T09:06:50+02:00</time>
      </trkpt>
      <trkpt lat="43.7844" lon="3.39221">
        <ele>455</ele>
        <time>2021-06-13T09:06:55+02:00</time>
      </trkpt>
      <trkpt lat="43.78438" lon="3.39251">
        <ele>458</ele>
        <time>2021-06-13T09:07:00+02:00</time>
      </trkpt>
      <trkpt lat="43.78441" lon="3.39275">
        <ele>465</ele>
        <time>2021-06-13T09:07:05+02:00</time>
      </trkpt>
      <trkpt lat="43.78436" lon="3.39287">
        <ele>464</ele>
        <time>2021-06-13T09:07:10+02:00</time>
      </trkpt>
      <trkpt lat="43.78433" lon="3.39328">
        <ele>471</ele>
        <time>2021-06-13T09:07:15+02:00</time>
      </trkpt>
      <trkpt lat="43.78407" lon="3.39353">
        <ele>471</ele>
        <time>2021-06-13T09:07:20+02:00</time>
      </trkpt>
      <trkpt lat="43.78369" lon="3.39394">
        <ele>484</ele>
        <time>2021-06-13T09:07:25+02:00</time>
      </trkpt>
      <trkpt lat="43.7835" lon="3.3938">
        <ele>477</ele>
        <time>2021-06-13T09:07:30+02:00</time>
      </trkpt>
      <trkpt lat="43.78316" lon="3.39378">
        <ele>485</ele>
        <time>2021-06-13T09:07:35+02:00</time>
      </trkpt>
      <trkpt lat="43.783" lon="3.39372">
        <ele>492</ele>
        <time>2021-06-13T09:07:40+02:00</time>
      </trkpt>
      <trkpt lat="43.78291" lon="3.39347">
        <ele>490</ele>
        <time>2021-06-13T09:07:45+02:00</time>
      </trkpt>
      <trkpt lat="43.78297" lon="3.39318">
        <ele>480</ele>
        <time>2021-06-13T09:07:50+02:00</time>
      </trkpt>
      <trkpt lat="43.78302" lon="3.39296">
        <ele>474</ele>
        <time>2021-06-13T09:07:55+02:00</time>
      </trkpt>
      <trkpt lat="43.78303" lon="3.3928">
        <ele>471</ele>
        <time>2021-06-13T09:08:00+02:00</time>
      </trkpt>
      <trkpt lat="43.78301" lon="3.39261">
        <ele>470</ele>
        <time>2021-06-13T09:08:05+02:00</time>
      </trkpt>
      <trkpt lat="43.78288" lon="3.39223">
        <ele>472</ele>
        <time>2021-06-13T09:08:10+02:00</time>
      </trkpt>
      <trkpt lat="43.78288" lon="3.39191">
        <ele>466</ele>
        <time>2021-06-13T09:08:15+02:00</time>
      </trkpt>
      <trkpt lat="43.78264" lon="3.39145">
        <ele>465</ele>
        <time>2021-06-13T09:08:20+02:00</time>
      </trkpt>
      <trkpt lat="43.78233" lon="3.39075">
        <ele>447</ele>
        <time>2021-06-13T09:08:25+02:00</time>
      </trkpt>
      <trkpt lat="43.78216" lon="3.39081">
        <ele>452</ele>
        <time>2021-06-13T09:08:30+02:00</time>
      </trkpt>
      <trkpt lat="43.7817" lon="3.39085">
        <ele>460</ele>
        <time>2021-06-13T09:08:35+02:00</time>
      </trkpt>
      <trkpt lat="43.78172" lon="3.39063">
        <ele>452</ele>
        <time>2021-06-13T09:08:40+02:00</time>
      </trkpt>
      <trkpt lat="43.78217" lon="3.39059">
        <ele>444</ele>
        <time>2021-06-13T09:08:45+02:00</time>
      </trkpt>
      <trkpt lat="43.78202" lon="3.3904">
        <ele>440</ele>
        <time>2021-06-13T09:08:50+02:00</time>
      </trkpt>
      <trkpt lat="43.78175" lon="3.39037">
        <ele>442</ele>
        <time>2021-06-13T09:08:55+02:00</time>
      </trkpt>
      <trkpt lat="43.78145" lon="3.39048">
        <ele>448</ele>
        <time>2021-06-13T09:09:00+02:00</time>
      </trkpt>
      <trkpt lat="43.78108" lon="3.39047">
        <ele>449</ele>
        <time>2021-06-13T09:09:05+02:00</time>
      </trkpt>
      <trkpt lat="43.7808" lon="3.39023">
        <ele>441</ele>
        <time>2021-06-13T09:09:10+02:00</time>
      </trkpt>
      <trkpt lat="43.78063" lon="3.39004">
        <ele>433</ele>
        <time>2021-06-13T09:09:15+02:00</time>
      </trkpt>
      <trkpt lat="43.78028" lon="3.39">
        <ele>430</ele>
        <time>2021-06-13T09:09:20+02:00</time>
      </trkpt>
      <trkpt lat="43.78009" lon="3.39019">
        <ele>436</ele>
        <time>2021-06-13T09:09:25+02:00</time>
      </trkpt>
      <trkpt lat="43.77984" lon="3.39015">
        <ele>436</ele>
        <time>2021-06-13T09:09:30+02:00</time>
      </trkpt>
      <trkpt lat="43.77942" lon="3.39008">
        <ele>438</ele>
        <time>2021-06-13T09:09:35+02:00</time>
      </trkpt>
      <trkpt lat="43.77909" lon="3.38984">
        <ele>434</ele>
        <time>2021-06-13T09:09:40+02:00</time>
      </trkpt>
      <trkpt lat="43.77891" lon="3.38979">
        <ele>434</ele>
        <time>2021-06-13T09:09:45+02:00</time>
      </trkpt>
      <trkpt lat="43.77864" lon="3.3895">
        <ele>429</ele>
        <time>2021-06-13T09:09:50+02:00</time>
      </trkpt>
      <trkpt lat="43.77841" lon="3.38909">
        <ele>423</ele>
        <time>2021-06-13T09:09:55+02:00</time>
      </trkpt>
      <trkpt lat="43.77795" lon="3.38843">
        <ele>424</ele>
        <time>2021-06-13T09:10:00+02:00</time>
      </trkpt>
      <trkpt lat="43.77782" lon="3.3882">
        <ele>425</ele>
        <time>2021-06-13T09:10:05+02:00</time>
      </trkpt>
      <trkpt lat="43.77836" lon="3.38871">
        <ele>416</ele>
        <time>2021-06-13T09:10:10+02:00</time>
      </trkpt>
      <trkpt lat="43.77873" lon="3.38895">
        <ele>415</ele>
        <time>2021-06-13T09:10:15+02:00</time>
      </trkpt>
      <trkpt lat="43.77884" lon="3.38886">
        <ele>411</ele>
        <time>2021-06-13T09:10:20+02:00</time>
      </trkpt>
      <trkpt lat="43.77905" lon="3.38873">
        <ele>406</ele>
        <time>2021-06-13T09:10:25+02:00</time>
      </trkpt>
      <trkpt lat="43.77921" lon="3.38875">
        <ele>403</ele>
        <time>2021-06-13T09:10:30+02:00</time>
      </trkpt>
      <trkpt lat="43.77941" lon="3.38919">
        <ele>409</ele>
        <time>2021-06-13T09:10:35+02:00</time>
      </trkpt>
      <trkpt lat="43.77987" lon="3.38918">
        <ele>401</ele>
        <time>2021-06-13T09:10:40+02:00</time>
      </trkpt>
      <trkpt lat="43.78002" lon="3.38912">
        <ele>397</ele>
        <time>2021-06-13T09:10:45+02:00</time>
      </trkpt>
      <trkpt lat="43.78026" lon="3.38927">
        <ele>402</ele>
        <time>2021-06-13T09:10:50+02:00</time>
      </trkpt>
      <trkpt lat="43.78066" lon="3.38927">
        <ele>402</ele>
        <time>2021-06-13T09:10:55+02:00</time>
      </trkpt>
      <trkpt lat="43.78101" lon="3.38899">
        <ele>391</ele>
        <time>2021-06-13T09:11:00+02:00</time>
      </trkpt>
      <trkpt lat="43.78132" lon="3.38888">
        <ele>386</ele>
        <time>2021-06-13T09:11:05+02:00</time>
      </trkpt>
      <trkpt lat="43.78132" lon="3.38888">
        <ele>386</ele>
        <time>2021-06-13T09:11:10+02:00</time>
      </trkpt>
      <trkpt lat="43.78163" lon="3.38886">
        <ele>386</ele>
        <time>2021-06-13T09:11:15+02:00</time>
      </trkpt>
      <trkpt lat="43.78191" lon="3.38862">
        <ele>374</ele>
        <time>2021-06-13T09:11:20+02:00</time>
      </trkpt>
      <trkpt lat="43.78188" lon="3.38849">
        <ele>370</ele>
        <time>2021-06-13T09:11:25+02:00</time>
      </trkpt>
      <trkpt lat="43.78161" lon="3.38849">
        <ele>372</ele>
        <time>2021-06-13T09:11:30+02:00</time>
      </trkpt>
      <trkpt lat="43.78162" lon="3.38833">
        <ele>366</ele>
        <time>2021-06-13T09:11:35+02:00</time>
      </trkpt>
      <trkpt lat="43.78175" lon="3.38806">
        <ele>362</ele>
        <time>2021-06-13T09:11:40+02:00</time>
      </trkpt>
      <trkpt lat="43.78168" lon="3.38776">
        <ele>359</ele>
        <time>2021-06-13T09:11:45+02:00</time>
      </trkpt>
      <trkpt lat="43.78146" lon="3.38756">
        <ele>357</ele>
        <time>2021-06-13T09:11:50+02:00</time>
      </trkpt>
      <trkpt lat="43.78094" lon="3.38695">
        <ele>355</ele>
        <time>2021-06-13T09:11:55+02:00</time>
      </trkpt>
      <trkpt lat="43.78072" lon="3.38666">
        <ele>356</ele>
        <time>2021-06-13T09:12:00+02:00</time>
      </trkpt>
      <trkpt lat="43.78058" lon="3.38641">
        <ele>353</ele>
        <time>2021-06-13T09:12:05+02:00</time>
      </trkpt>
      <trkpt lat="43.78046" lon="3.38631">
        <ele>352</ele>
        <time>2021-06-13T09:12:10+02:00</time>
      </trkpt>
      <trkpt lat="43.78024" lon="3.3863">
        <ele>354</ele>
        <time>2021-06-13T09:12:15+02:00</time>
      </trkpt>
      <trkpt lat="43.77998" lon="3.38603">
        <ele>352</ele>
        <time>2021-06-13T09:12:20+02:00</time>
      </trkpt>
      <trkpt lat="43.77977" lon="3.38559">
        <ele>344</ele>
        <time>2021-06-13T09:12:25+02:00</time>
      </trkpt>
      <trkpt lat="43.77948" lon="3.38557">
        <ele>344</ele>
        <time>2021-06-13T09:12:30+02:00</time>
      </trkpt>
      <trkpt lat="43.77939" lon="3.38551">
        <ele>344</ele>
        <time>2021-06-13T09:12:35+02:00</time>
      </trkpt>
      <trkpt lat="43.77915" lon="3.38576">
        <ele>348</ele>
        <time>2021-06-13T09:12:40+02:00</time>
      </trkpt>
      <trkpt lat="43.77899" lon="3.38577">
        <ele>351</ele>
        <time>2021-06-13T09:12:45+02:00</time>
      </trkpt>
      <trkpt lat="43.77878" lon="3.38558">
        <ele>351</ele>
        <time>2021-06-13T09:12:50+02:00</time>
      </trkpt>
      <trkpt lat="43.7787" lon="3.38534">
        <ele>348</ele>
        <time>2021-06-13T09:12:55+02:00</time>
      </trkpt>
      <trkpt lat="43.77852" lon="3.38519">
        <ele>348</ele>
        <time>2021-06-13T09:13:00+02:00</time>
      </trkpt>
      <trkpt lat="43.77832" lon="3.38534">
        <ele>354</ele>
        <time>2021-06-13T09:13:05+02:00</time>
      </trkpt>
      <trkpt lat="43.77813" lon="3.38531">
        <ele>356</ele>
        <time>2021-06-13T09:13:10+02:00</time>
      </trkpt>
      <trkpt lat="43.77803" lon="3.38516">
        <ele>354</ele>
        <time>2021-06-13T09:13:15+02:00</time>
      </trkpt>
      <trkpt lat="43.77799" lon="3.38501">
        <ele>351</ele>
        <time>2021-06-13T09:13:20+02:00</time>
      </trkpt>
      <trkpt lat="43.77779" lon="3.38474">
        <ele>349</ele>
        <time>2021-06-13T09:13:25+02:00</time>
      </trkpt>
      <trkpt lat="43.77781" lon="3.38442">
        <ele>343</ele>
        <time>2021-06-13T09:13:30+02:00</time>
      </trkpt>
      <trkpt lat="43.77781" lon="3.38405">
        <ele>338</ele>
        <time>2021-06-13T09:13:35+02:00</time>
      </trkpt>
      <trkpt lat="43.7777" lon="3.38376">
        <ele>335</ele>
        <time>2021-06-13T09:13:40+02:00</time>
      </trkpt>
      <trkpt lat="43.77743" lon="3.38345">
        <ele>335</ele>
        <time>2021-06-13T09:13:45+02:00</time>
      </trkpt>
      <trkpt lat="43.77728" lon="3.3831">
        <ele>331</ele>
        <time>2021-06-13T09:13:50+02:00</time>
      </trkpt>
      <trkpt lat="43.77708" lon="3.38266">
        <ele>327</ele>
        <time>2021-06-13T09:13:55+02:00</time>
      </trkpt>
      <trkpt lat="43.77688" lon="3.38252">
        <ele>327</ele>
        <time>2021-06-13T09:14:00+02:00</time>
      </trkpt>
      <trkpt lat="43.7767" lon="3.38248">
        <ele>328</ele>
        <time>2021-06-13T09:14:05+02:00</time>
      </trkpt>
      <trkpt lat="43.7768" lon="3.38233">
        <ele>326</ele>
        <time>2021-06-13T09:14:10+02:00</time>
      </trkpt>
      <trkpt lat="43.77694" lon="3.38219">
        <ele>322</ele>
        <time>2021-06-13T09:14:15+02:00</time>
      </trkpt>
      <trkpt lat="43.77732" lon="3.38229">
        <ele>319</ele>
        <time>2021-06-13T09:14:20+02:00</time>
      </trkpt>
      <trkpt lat="43.77757" lon="3.38245">
        <ele>319</ele>
        <time>2021-06-13T09:14:25+02:00</time>
      </trkpt>
      <trkpt lat="43.77801" lon="3.3826">
        <ele>316</ele>
        <time>2021-06-13T09:14:30+02:00</time>
      </trkpt>
      <trkpt lat="43.77822" lon="3.38269">
        <ele>315</ele>
        <time>2021-06-13T09:14:35+02:00</time>
      </trkpt>
      <trkpt lat="43.77862" lon="3.38317">
        <ele>317</ele>
        <time>2021-06-13T09:14:40+02:00</time>
      </trkpt>
      <trkpt lat="43.77878" lon="3.38343">
        <ele>319</ele>
        <time>2021-06-13T09:14:45+02:00</time>
      </trkpt>
      <trkpt lat="43.77942" lon="3.38372">
        <ele>314</ele>
        <time>2021-06-13T09:14:50+02:00</time>
      </trkpt>
      <trkpt lat="43.77943" lon="3.38347">
        <ele>311</ele>
        <time>2021-06-13T09:14:55+02:00</time>
      </trkpt>
      <trkpt lat="43.7795" lon="3.38307">
        <ele>305</ele>
        <time>2021-06-13T09:15:00+02:00</time>
      </trkpt>
      <trkpt lat="43.77962" lon="3.38263">
        <ele>298</ele>
        <time>2021-06-13T09:15:05+02:00</time>
      </trkpt>
      <trkpt lat="43.77964" lon="3.38245">
        <ele>296</ele>
        <time>2021-06-13T09:15:10+02:00</time>
      </trkpt>
      <trkpt lat="43.77968" lon="3.38223">
        <ele>293</ele>
        <time>2021-06-13T09:15:15+02:00</time>
      </trkpt>
      <trkpt lat="43.77967" lon="3.38206">
        <ele>291</ele>
        <time>2021-06-13T09:15:20+02:00</time>
      </trkpt>
      <trkpt lat="43.7796" lon="3.3819">
        <ele>290</ele>
        <time>2021-06-13T09:15:25+02:00</time>
      </trkpt>
      <trkpt lat="43.7795" lon="3.38165">
        <ele>288</ele>
        <time>2021-06-13T09:15:30+02:00</time>
      </trkpt>
      <trkpt lat="43.7795" lon="3.38084">
        <ele>282</ele>
        <time>2021-06-13T09:15:35+02:00</time>
      </trkpt>
      <trkpt lat="43.77957" lon="3.38067">
        <ele>282</ele>
        <time>2021-06-13T09:15:40+02:00</time>
      </trkpt>
      <trkpt lat="43.77911" lon="3.3805">
        <ele>281</ele>
        <time>2021-06-13T09:15:45+02:00</time>
      </trkpt>
      <trkpt lat="43.77853" lon="3.38035">
        <ele>280</ele>
        <time>2021-06-13T09:15:50+02:00</time>
      </trkpt>
    </trkseg>
  </trk>
</gpx>